createdAt,value
2018-09-14T00:00:50.745Z,21.50
2018-09-14T00:03:19.284Z,21.50
2018-09-14T00:05:47.717Z,21.20
2018-09-14T00:08:16.245Z,21.40
2018-09-14T00:10:44.741Z,21.40
2018-09-14T00:13:13.298Z,21.40
2018-09-14T00:15:41.861Z,21.40
2018-09-14T00:18:10.377Z,21.40
2018-09-14T00:20:38.835Z,21.30
2018-09-14T00:25:35.516Z,21.50
2018-09-14T00:30:32.153Z,21.40
2018-09-14T00:35:28.813Z,21.40
2018-09-14T00:37:57.266Z,21.40
2018-09-14T00:40:25.785Z,21.30
2018-09-14T00:42:54.225Z,21.30
2018-09-14T00:45:22.745Z,21.30
2018-09-14T00:47:51.190Z,21.30
2018-09-14T00:50:19.713Z,21.30
2018-09-14T00:52:48.178Z,21.30
2018-09-14T00:55:16.712Z,21.30
2018-09-14T00:57:45.247Z,21.20
2018-09-14T01:00:12.940Z,21.30
2018-09-14T01:02:40.672Z,21.20
2018-09-14T01:05:08.476Z,21.20
2018-09-14T01:07:36.270Z,21.20
2018-09-14T01:10:04.717Z,21.20
2018-09-14T01:12:32.453Z,21.20
2018-09-14T01:15:00.213Z,21.10
2018-09-14T01:17:27.976Z,21.20
2018-09-14T01:19:55.883Z,21.10
2018-09-14T01:22:23.607Z,21.10
2018-09-14T01:27:19.008Z,21.00
2018-09-14T01:29:46.943Z,21.00
2018-09-14T01:32:14.692Z,21.00
2018-09-14T01:34:42.441Z,21.10
2018-09-14T01:37:10.209Z,21.10
2018-09-14T01:39:38.000Z,21.00
2018-09-14T01:42:05.986Z,21.10
2018-09-14T01:44:33.704Z,21.10
2018-09-14T01:47:01.516Z,21.10
2018-09-14T01:51:56.672Z,21.10
2018-09-14T01:54:24.508Z,21.10
2018-09-14T01:56:52.308Z,21.10
2018-09-14T02:01:47.536Z,21.00
2018-09-14T02:04:15.344Z,21.00
2018-09-14T02:06:43.116Z,21.00
2018-09-14T02:09:11.646Z,21.00
2018-09-14T02:11:39.460Z,21.00
2018-09-14T02:14:07.480Z,21.00
2018-09-14T02:16:35.403Z,21.00
2018-09-14T02:19:03.164Z,21.00
2018-09-14T02:21:30.877Z,21.00
2018-09-14T02:23:58.682Z,21.00
2018-09-14T02:26:26.424Z,21.00
2018-09-14T02:28:54.416Z,21.00
2018-09-14T02:31:23.160Z,21.00
2018-09-14T02:33:50.940Z,21.00
2018-09-14T02:36:18.701Z,21.00
2018-09-14T02:38:46.501Z,21.00
2018-09-14T02:41:14.222Z,21.00
2018-09-14T02:43:42.033Z,21.00
2018-09-14T02:46:09.753Z,21.10
2018-09-14T02:48:37.513Z,21.10
2018-09-14T02:51:05.435Z,21.00
2018-09-14T02:56:00.863Z,21.00
2018-09-14T02:58:28.577Z,21.00
2018-09-14T03:00:56.309Z,21.00
2018-09-14T03:03:24.104Z,20.90
2018-09-14T03:05:51.878Z,20.90
2018-09-14T03:08:19.636Z,20.90
2018-09-14T03:10:47.433Z,21.00
2018-09-14T03:13:15.167Z,21.00
2018-09-14T03:15:43.004Z,21.00
2018-09-14T03:18:10.792Z,21.00
2018-09-14T03:23:06.015Z,21.00
2018-09-14T03:25:34.808Z,21.00
2018-09-14T03:28:02.573Z,21.00
2018-09-14T03:30:30.373Z,21.00
2018-09-14T03:32:58.137Z,21.00
2018-09-14T03:35:25.844Z,20.90
2018-09-14T03:37:53.670Z,21.00
2018-09-14T03:40:21.394Z,20.90
2018-09-14T03:42:49.194Z,20.90
2018-09-14T03:45:16.931Z,21.00
2018-09-14T03:47:44.831Z,20.90
2018-09-14T03:50:13.554Z,21.00
2018-09-14T03:52:41.352Z,20.90
2018-09-14T03:55:09.114Z,21.00
2018-09-14T03:57:36.861Z,21.00
2018-09-14T04:00:04.684Z,21.00
2018-09-14T04:02:32.408Z,21.00
2018-09-14T04:05:00.152Z,20.90
2018-09-14T04:07:27.937Z,20.90
2018-09-14T04:09:55.733Z,20.90
2018-09-14T04:12:23.532Z,20.90
2018-09-14T04:14:51.332Z,20.90
2018-09-14T04:17:19.089Z,21.40
2018-09-14T04:19:46.982Z,21.00
2018-09-14T04:22:14.814Z,20.90
2018-09-14T04:24:42.590Z,20.90
2018-09-14T04:27:10.344Z,21.00
2018-09-14T04:29:38.091Z,21.00
2018-09-14T04:32:05.889Z,21.00
2018-09-14T04:34:33.648Z,21.00
2018-09-14T04:37:01.454Z,21.10
2018-09-14T04:39:29.180Z,21.00
2018-09-14T04:41:56.952Z,21.00
2018-09-14T04:44:24.742Z,21.00
2018-09-14T04:46:52.525Z,21.00
2018-09-14T04:49:20.232Z,21.00
2018-09-14T04:51:48.000Z,21.00
2018-09-14T04:54:15.804Z,21.00
2018-09-14T04:56:43.540Z,21.00
2018-09-14T04:59:11.333Z,21.00
2018-09-14T05:01:39.061Z,21.00
2018-09-14T05:04:06.857Z,21.00
2018-09-14T05:06:34.629Z,21.00
2018-09-14T05:09:02.441Z,21.00
2018-09-14T05:11:30.240Z,21.00
2018-09-14T05:13:58.011Z,21.00
2018-09-14T05:16:25.777Z,21.00
2018-09-14T05:18:53.565Z,21.00
2018-09-14T05:21:21.331Z,21.00
2018-09-14T05:23:49.053Z,21.00
2018-09-14T05:26:16.845Z,21.00
2018-09-14T05:28:44.612Z,21.00
2018-09-14T05:31:12.368Z,21.00
2018-09-14T05:33:40.140Z,21.00
2018-09-14T05:36:07.871Z,21.00
2018-09-14T05:38:35.676Z,21.00
2018-09-14T05:41:03.434Z,21.10
2018-09-14T05:43:31.156Z,21.10
2018-09-14T05:45:58.970Z,21.10
2018-09-14T05:48:26.684Z,21.10
2018-09-14T05:50:54.490Z,21.20
2018-09-14T05:53:22.217Z,21.20
2018-09-14T05:55:50.013Z,21.10
2018-09-14T05:58:17.754Z,21.10
2018-09-14T06:00:45.517Z,21.10
2018-09-14T06:03:13.273Z,21.10
2018-09-14T06:05:41.040Z,21.10
2018-09-14T06:08:08.810Z,21.10
2018-09-14T06:10:36.609Z,21.10
2018-09-14T06:13:04.333Z,21.10
2018-09-14T06:15:32.060Z,21.00
2018-09-14T06:17:59.794Z,21.00
2018-09-14T06:20:27.565Z,21.00
2018-09-14T06:22:55.344Z,21.00
2018-09-14T06:25:23.049Z,21.00
2018-09-14T06:27:50.829Z,21.00
2018-09-14T06:30:18.633Z,21.00
2018-09-14T06:32:46.377Z,21.00
2018-09-14T06:35:14.111Z,21.00
2018-09-14T06:37:41.876Z,21.00
2018-09-14T06:40:09.585Z,21.00
2018-09-14T06:42:37.272Z,21.00
2018-09-14T06:45:05.031Z,21.00
2018-09-14T06:47:32.676Z,21.00
2018-09-14T06:50:00.380Z,21.00
2018-09-14T06:52:28.096Z,21.00
2018-09-14T06:54:55.863Z,21.00
2018-09-14T06:57:24.572Z,21.10
2018-09-14T06:59:52.268Z,21.00
2018-09-14T07:04:51.830Z,21.10
2018-09-14T07:07:19.532Z,21.10
2018-09-14T07:09:47.345Z,21.20
2018-09-14T07:12:15.049Z,21.20
2018-09-14T07:14:42.704Z,21.20
2018-09-14T07:17:10.412Z,21.20
2018-09-14T07:19:38.184Z,21.10
2018-09-14T07:22:05.973Z,21.10
2018-09-14T07:31:22.041Z,21.20
2018-09-14T07:33:50.069Z,21.10
2018-09-14T07:36:17.866Z,21.10
2018-09-14T07:38:45.549Z,21.10
2018-09-14T07:41:13.243Z,21.10
2018-09-14T07:43:41.039Z,21.10
2018-09-14T07:46:08.777Z,21.10
2018-09-14T07:48:36.553Z,21.10
2018-09-14T07:51:04.308Z,21.10
2018-09-14T07:53:32.092Z,21.10
2018-09-14T07:55:59.825Z,21.20
2018-09-14T07:58:27.631Z,21.20
2018-09-14T08:00:55.345Z,21.30
2018-09-14T08:03:23.117Z,21.40
2018-09-14T08:05:50.868Z,21.40
2018-09-14T08:08:18.790Z,21.40
2018-09-14T08:10:47.560Z,21.40
2018-09-14T08:13:15.288Z,21.40
2018-09-14T08:15:42.973Z,21.50
2018-09-14T08:18:10.776Z,21.60
2018-09-14T08:20:38.497Z,21.70
2018-09-14T08:23:06.277Z,21.80
2018-09-14T08:25:33.965Z,21.80
2018-09-14T08:28:01.661Z,21.90
2018-09-14T08:30:29.355Z,21.90
2018-09-14T08:32:57.117Z,21.90
2018-09-14T08:35:24.786Z,22.00
2018-09-14T08:37:52.444Z,22.00
2018-09-14T08:40:20.168Z,22.00
2018-09-14T08:42:47.832Z,22.10
2018-09-14T08:45:15.548Z,22.20
2018-09-14T08:47:43.239Z,22.20
2018-09-14T08:50:10.944Z,22.30
2018-09-14T08:52:38.650Z,22.40
2018-09-14T08:55:06.958Z,22.40
2018-09-14T08:57:34.688Z,22.50
2018-09-14T09:00:02.341Z,22.50
2018-09-14T09:02:30.056Z,22.40
2018-09-14T09:04:57.786Z,22.50
2018-09-14T09:07:25.654Z,22.40
2018-09-14T09:09:53.379Z,22.40
2018-09-14T09:12:21.146Z,22.30
2018-09-14T09:14:48.936Z,22.30
2018-09-14T09:17:16.596Z,22.30
2018-09-14T09:19:44.283Z,22.30
2018-09-14T09:22:11.989Z,22.40
2018-09-14T09:24:39.695Z,22.40
2018-09-14T09:27:07.340Z,22.40
2018-09-14T09:29:35.075Z,22.30
2018-09-14T09:32:02.718Z,22.30
2018-09-14T09:34:30.428Z,22.30
2018-09-14T09:36:58.093Z,22.30
2018-09-14T09:39:25.873Z,22.30
2018-09-14T09:41:53.536Z,22.30
2018-09-14T09:44:21.225Z,22.30
2018-09-14T09:46:48.962Z,22.40
2018-09-14T09:49:16.656Z,22.40
2018-09-14T09:51:44.353Z,22.50
2018-09-14T09:54:12.041Z,22.60
2018-09-14T09:56:39.756Z,22.70
2018-09-14T09:59:08.465Z,22.80
2018-09-14T10:01:41.448Z,23.00
2018-09-14T10:04:14.604Z,23.10
2018-09-14T10:06:42.352Z,23.20
2018-09-14T10:09:10.377Z,23.40
2018-09-14T10:11:38.109Z,23.40
2018-09-14T10:14:06.059Z,23.50
2018-09-14T10:16:33.720Z,23.50
2018-09-14T10:19:01.493Z,23.60
2018-09-14T10:21:29.209Z,23.60
2018-09-14T10:23:56.885Z,23.60
2018-09-14T10:26:24.583Z,23.60
2018-09-14T10:28:52.459Z,23.60
2018-09-14T10:31:20.121Z,23.60
2018-09-14T10:33:47.898Z,23.60
2018-09-14T10:36:15.615Z,23.60
2018-09-14T10:38:43.273Z,23.50
2018-09-14T10:41:10.965Z,23.50
2018-09-14T10:43:38.717Z,23.40
2018-09-14T10:46:06.412Z,23.40
2018-09-14T10:48:34.073Z,23.30
2018-09-14T10:51:01.777Z,23.30
2018-09-14T10:53:29.442Z,23.30
2018-09-14T10:55:57.117Z,23.30
2018-09-14T10:58:24.849Z,23.30
2018-09-14T11:00:52.603Z,23.40
2018-09-14T11:03:20.253Z,23.40
2018-09-14T11:05:48.044Z,23.50
2018-09-14T11:08:15.845Z,23.60
2018-09-14T11:10:43.572Z,23.70
2018-09-14T11:13:11.476Z,23.80
2018-09-14T11:15:39.196Z,23.90
2018-09-14T11:18:06.964Z,24.10
2018-09-14T11:20:34.790Z,24.10
2018-09-14T11:23:02.496Z,24.10
2018-09-14T11:25:30.273Z,24.00
2018-09-14T11:27:57.999Z,24.00
2018-09-14T11:30:25.680Z,24.00
2018-09-14T11:32:53.336Z,24.00
2018-09-14T11:35:21.013Z,24.00
2018-09-14T11:37:48.915Z,24.00
2018-09-14T11:40:16.520Z,24.00
2018-09-14T11:42:44.345Z,24.10
2018-09-14T11:45:12.099Z,24.10
2018-09-14T11:47:39.871Z,24.10
2018-09-14T11:50:07.581Z,24.10
2018-09-14T11:52:35.373Z,24.20
2018-09-14T11:55:03.113Z,24.10
2018-09-14T11:57:30.920Z,24.10
2018-09-14T11:59:58.681Z,24.10
2018-09-14T12:02:26.461Z,24.10
2018-09-14T12:04:55.484Z,24.10
2018-09-14T12:07:23.297Z,24.10
2018-09-14T12:09:51.080Z,24.10
2018-09-14T12:12:18.804Z,24.00
2018-09-14T12:14:46.588Z,23.90
2018-09-14T12:17:14.309Z,23.80
2018-09-14T12:19:42.216Z,23.80
2018-09-14T12:22:10.743Z,23.70
2018-09-14T12:24:39.245Z,23.70
2018-09-14T12:27:07.854Z,23.60
2018-09-14T12:29:36.378Z,23.50
2018-09-14T12:32:04.974Z,23.40
2018-09-14T12:34:33.501Z,23.30
2018-09-14T12:37:01.960Z,23.30
2018-09-14T12:39:30.481Z,23.20
2018-09-14T12:41:58.913Z,23.20
2018-09-14T12:44:27.400Z,23.20
2018-09-14T12:46:55.894Z,23.10
2018-09-14T12:49:24.433Z,23.10
2018-09-14T12:51:52.958Z,23.10
2018-09-14T12:54:21.501Z,23.10
2018-09-14T12:56:50.082Z,23.10
2018-09-14T12:59:18.723Z,23.00
2018-09-14T13:01:47.524Z,23.00
2018-09-14T13:04:16.172Z,23.00
2018-09-14T13:06:45.098Z,23.00
2018-09-14T13:09:14.633Z,23.00
2018-09-14T13:11:44.724Z,22.90
2018-09-14T13:14:13.286Z,22.80
2018-09-14T13:16:41.792Z,22.80
2018-09-14T13:19:10.242Z,22.70
2018-09-14T13:21:38.752Z,22.70
2018-09-14T13:24:07.293Z,22.70
2018-09-14T13:26:35.721Z,22.60
2018-09-14T13:29:04.193Z,22.50
2018-09-14T13:31:32.685Z,22.50
2018-09-14T13:34:01.139Z,22.40
2018-09-14T13:36:29.637Z,22.40
2018-09-14T13:38:58.413Z,22.40
2018-09-14T13:41:27.439Z,22.30
2018-09-14T13:43:55.892Z,22.20
2018-09-14T13:46:24.406Z,22.10
2018-09-14T13:48:52.935Z,22.00
2018-09-14T13:51:21.429Z,22.00
2018-09-14T13:53:49.937Z,22.00
2018-09-14T13:56:18.433Z,22.00
2018-09-14T13:58:47.236Z,22.10
2018-09-14T14:01:16.054Z,22.00
2018-09-14T14:03:44.540Z,22.00
2018-09-14T14:06:13.056Z,22.00
2018-09-14T14:08:41.497Z,21.90
2018-09-14T14:11:10.013Z,21.90
2018-09-14T14:13:38.509Z,21.90
2018-09-14T14:16:07.282Z,21.90
2018-09-14T14:18:35.770Z,21.80
2018-09-14T14:21:04.258Z,21.90
2018-09-14T14:23:32.689Z,21.90
2018-09-14T14:26:01.329Z,22.00
2018-09-14T14:28:29.877Z,22.00
2018-09-14T14:30:58.389Z,21.90
2018-09-14T14:33:26.856Z,21.90
2018-09-14T14:35:55.348Z,21.90
2018-09-14T14:38:23.822Z,21.90
2018-09-14T14:40:52.570Z,21.80
2018-09-14T14:43:21.077Z,21.80
2018-09-14T14:45:49.785Z,21.80
2018-09-14T14:48:18.229Z,21.90
2018-09-14T14:50:46.706Z,21.90
2018-09-14T14:53:15.229Z,21.90
2018-09-14T14:55:43.672Z,21.90
2018-09-14T14:58:12.190Z,21.90
2018-09-14T15:00:40.669Z,21.90
2018-09-14T15:03:09.150Z,21.90
2018-09-14T15:05:37.624Z,21.90
2018-09-14T15:08:06.081Z,21.90
2018-09-14T15:10:34.608Z,21.90
2018-09-14T15:13:03.396Z,21.90
2018-09-14T15:15:32.066Z,21.80
2018-09-14T15:18:00.558Z,21.80
2018-09-14T15:20:29.106Z,21.70
2018-09-14T15:22:57.612Z,21.70
2018-09-14T15:25:26.093Z,21.70
2018-09-14T15:27:54.537Z,21.70
2018-09-14T15:30:23.053Z,21.70
2018-09-14T15:32:51.570Z,21.70
2018-09-14T15:35:20.142Z,21.70
2018-09-14T15:37:49.269Z,21.70
2018-09-14T15:40:18.022Z,21.70
2018-09-14T15:42:46.456Z,21.70
2018-09-14T15:45:15.008Z,21.70
2018-09-14T15:47:43.761Z,21.70
2018-09-14T15:50:12.213Z,21.70
2018-09-14T15:52:40.925Z,21.70
2018-09-14T15:55:09.425Z,21.70
2018-09-14T15:57:38.078Z,21.70
2018-09-14T16:00:06.885Z,21.70
2018-09-14T16:02:35.402Z,21.60
2018-09-14T16:05:04.025Z,21.60
2018-09-14T16:07:32.513Z,21.60
2018-09-14T16:10:01.038Z,21.60
2018-09-14T16:12:29.604Z,21.50
2018-09-14T16:14:58.042Z,21.50
2018-09-14T16:17:26.533Z,21.50
2018-09-14T16:19:55.128Z,21.40
2018-09-14T16:22:23.649Z,21.30
2018-09-14T16:24:52.176Z,21.30
2018-09-14T16:27:20.690Z,21.20
2018-09-14T16:29:49.132Z,21.20
2018-09-14T16:32:17.649Z,21.20
2018-09-14T16:34:47.129Z,21.20
2018-09-14T16:37:15.765Z,21.20
2018-09-14T16:39:44.188Z,21.20
2018-09-14T16:42:12.725Z,21.20
2018-09-14T16:44:41.632Z,21.20
2018-09-14T16:47:10.555Z,21.20
2018-09-14T16:49:39.561Z,21.30
2018-09-14T16:52:08.113Z,21.20
2018-09-14T16:54:36.627Z,21.20
2018-09-14T16:57:05.272Z,21.20
2018-09-14T16:59:33.822Z,21.20
2018-09-14T17:02:02.260Z,21.20
2018-09-14T17:04:30.753Z,21.20
2018-09-14T17:06:59.234Z,21.20
2018-09-14T17:09:27.745Z,21.00
2018-09-14T17:11:56.252Z,21.00
2018-09-14T17:14:25.514Z,21.00
2018-09-14T17:16:53.976Z,20.90
2018-09-14T17:19:23.305Z,20.90
2018-09-14T17:21:51.781Z,20.80
2018-09-14T17:24:20.245Z,20.80
2018-09-14T17:26:48.729Z,20.70
2018-09-14T17:29:17.238Z,20.70
2018-09-14T17:31:45.681Z,20.70
2018-09-14T17:34:14.197Z,20.60
2018-09-14T17:36:42.618Z,20.60
2018-09-14T17:39:11.682Z,20.50
2018-09-14T17:41:40.140Z,20.50
2018-09-14T17:44:09.084Z,20.40
2018-09-14T17:46:37.539Z,20.40
2018-09-14T17:49:05.981Z,20.40
2018-09-14T17:51:34.457Z,20.40
2018-09-14T17:54:02.909Z,20.40
2018-09-14T17:56:31.365Z,20.40
2018-09-14T17:58:59.800Z,20.40
2018-09-14T18:01:28.317Z,20.40
2018-09-14T18:03:56.729Z,20.40
2018-09-14T18:06:25.189Z,20.40
2018-09-14T18:08:53.645Z,20.40
2018-09-14T18:11:22.571Z,20.40
2018-09-14T18:13:51.006Z,20.30
2018-09-14T18:16:19.525Z,20.30
2018-09-14T18:18:47.925Z,20.30
2018-09-14T18:21:16.386Z,20.30
2018-09-14T18:23:44.944Z,20.30
2018-09-14T18:26:13.400Z,20.30
2018-09-14T18:28:41.861Z,20.30
2018-09-14T18:31:10.326Z,20.30
2018-09-14T18:33:38.945Z,20.30
2018-09-14T18:36:07.439Z,20.40
2018-09-14T18:38:35.869Z,20.40
2018-09-14T18:41:04.396Z,20.40
2018-09-14T18:43:32.853Z,20.40
2018-09-14T18:46:01.265Z,20.40
2018-09-14T18:48:29.779Z,20.40
2018-09-14T18:50:58.177Z,20.40
2018-09-14T18:53:26.661Z,20.30
2018-09-14T18:55:55.065Z,20.40
2018-09-14T18:58:23.564Z,20.40
2018-09-14T19:00:51.981Z,20.30
2018-09-14T19:03:20.429Z,20.30
2018-09-14T19:05:49.022Z,20.30
2018-09-14T19:08:17.478Z,20.30
2018-09-14T19:10:46.117Z,20.20
2018-09-14T19:13:14.796Z,20.20
2018-09-14T19:15:43.260Z,20.20
2018-09-14T19:18:11.761Z,20.20
2018-09-14T19:20:40.366Z,20.10
2018-09-14T19:23:08.874Z,20.10
2018-09-14T19:25:37.513Z,20.10
2018-09-14T19:28:06.055Z,20.00
2018-09-14T19:30:34.777Z,20.00
2018-09-14T19:33:03.199Z,20.00
2018-09-14T19:35:31.829Z,20.00
2018-09-14T19:38:00.488Z,20.00
2018-09-14T19:40:28.937Z,20.00
2018-09-14T19:42:57.418Z,20.00
2018-09-14T19:45:26.350Z,20.00
2018-09-14T19:47:54.963Z,20.00
2018-09-14T19:50:23.729Z,20.00
2018-09-14T19:52:52.373Z,20.00
2018-09-14T19:55:21.011Z,20.00
2018-09-14T19:57:49.485Z,20.00
2018-09-14T20:00:17.972Z,20.00
2018-09-14T20:02:46.452Z,20.00
2018-09-14T20:05:14.892Z,20.00
2018-09-14T20:07:43.333Z,20.00
2018-09-14T20:10:11.804Z,20.00
2018-09-14T20:12:40.273Z,19.90
2018-09-14T20:15:08.776Z,20.00
2018-09-14T20:17:37.209Z,20.00
2018-09-14T20:20:05.686Z,19.90
2018-09-14T20:22:34.113Z,20.00
2018-09-14T20:25:02.579Z,20.00
2018-09-14T20:27:31.040Z,20.00
2018-09-14T20:29:59.549Z,20.00
2018-09-14T20:32:28.023Z,20.10
2018-09-14T20:34:56.493Z,20.20
2018-09-14T20:37:25.137Z,20.20
2018-09-14T20:39:53.584Z,20.20
2018-09-14T20:42:22.021Z,20.20
2018-09-14T20:44:50.490Z,20.20
2018-09-14T20:47:18.941Z,20.20
2018-09-14T20:49:47.591Z,20.20
2018-09-14T20:52:16.101Z,20.20
2018-09-14T20:54:44.517Z,20.20
2018-09-14T20:57:13.073Z,20.20
2018-09-14T20:59:41.578Z,20.10
2018-09-14T21:02:10.048Z,20.20
2018-09-14T21:04:38.471Z,20.10
2018-09-14T21:07:07.056Z,20.10
2018-09-14T21:09:35.481Z,20.10
2018-09-14T21:12:04.125Z,20.10
2018-09-14T21:14:32.576Z,20.10
2018-09-14T21:17:01.045Z,20.10
2018-09-14T21:19:29.457Z,20.10
2018-09-14T21:21:57.954Z,20.10
2018-09-14T21:24:26.361Z,20.10
2018-09-14T21:26:55.259Z,20.10
2018-09-14T21:29:24.010Z,20.10
2018-09-14T21:31:52.469Z,20.10
2018-09-14T21:34:20.937Z,20.10
2018-09-14T21:36:49.381Z,20.10
2018-09-14T21:39:17.851Z,20.00
2018-09-14T21:41:46.329Z,20.00
2018-09-14T21:44:14.769Z,20.00
2018-09-14T21:46:43.200Z,20.00
2018-09-14T21:49:12.668Z,20.00
2018-09-14T21:51:41.258Z,20.00
2018-09-14T21:54:09.757Z,20.00
2018-09-14T21:56:38.220Z,20.00
2018-09-14T21:59:06.708Z,19.90
2018-09-14T22:01:35.225Z,19.90
2018-09-14T22:04:03.649Z,19.90
2018-09-14T22:06:32.141Z,19.90
2018-09-14T22:09:00.561Z,19.90
2018-09-14T22:11:28.988Z,19.80
2018-09-14T22:13:57.461Z,19.80
2018-09-14T22:16:25.876Z,19.80
2018-09-14T22:18:54.335Z,19.80
2018-09-14T22:21:22.758Z,19.80
2018-09-14T22:23:51.238Z,19.70
2018-09-14T22:26:19.652Z,19.70
2018-09-14T22:28:48.214Z,19.70
2018-09-14T22:31:16.761Z,19.70
2018-09-14T22:33:45.184Z,19.60
2018-09-14T22:36:13.653Z,19.70
2018-09-14T22:38:42.081Z,19.70
2018-09-14T22:41:10.541Z,19.70
2018-09-14T22:43:38.969Z,19.70
2018-09-14T22:46:07.442Z,19.70
2018-09-14T22:48:35.857Z,19.70
2018-09-14T22:51:04.319Z,19.70
2018-09-14T22:53:32.731Z,19.70
2018-09-14T22:56:01.185Z,19.70
2018-09-14T22:58:29.617Z,19.70
2018-09-14T23:01:03.384Z,19.70
2018-09-14T23:03:31.813Z,19.70
2018-09-14T23:06:00.238Z,19.70
2018-09-14T23:08:28.649Z,19.70
2018-09-14T23:10:57.097Z,19.70
2018-09-14T23:13:25.517Z,19.70
2018-09-14T23:15:58.973Z,19.70
2018-09-14T23:18:28.049Z,19.60
2018-09-14T23:20:56.661Z,19.60
2018-09-14T23:23:25.162Z,19.60
2018-09-14T23:25:55.621Z,19.60
2018-09-14T23:28:24.041Z,19.60
2018-09-14T23:30:52.512Z,19.60
2018-09-14T23:33:20.951Z,19.60
2018-09-14T23:35:49.378Z,19.60
2018-09-14T23:38:17.805Z,19.50
2018-09-14T23:40:46.282Z,19.50
2018-09-14T23:43:14.750Z,19.50
2018-09-14T23:45:43.194Z,19.50
2018-09-14T23:48:11.659Z,19.50
2018-09-14T23:50:40.082Z,19.40
2018-09-14T23:53:08.511Z,19.40
2018-09-14T23:55:36.985Z,19.40
2018-09-14T23:58:05.689Z,19.40
